Amboy, Illinois
Current Conditions -  °F | °C
As of 4:15 AM on Saturday 25 Oct 2014 (Local Time) from KRPJ Reporting Station
Haze Haze  
Wind Chill: 56°   Ceiling: 900
Heat Index: 56°   Visibility: 4mi
Dew Point: 55°   Wind: 9mph
Humidity: 96%   Direction: 300°WNW
Pressure: 29.93"   Gusts: NA
Location:  41.71°N, 89.33°W
Report Text: KRPJ 250915Z AUTO 30008KT 4SM BR OVC009 14/13 A2993 RMK AO2 T01350129
Loading
Personal Weather Stations






























Interactive Weather Map
Tropical Storm Tracking
New forecast layout! Learn more

10-Day Weather Forecast

Advertisements
Track Severe Weather on mobile